createdAt,value
2022-11-28T15:32:44.853Z,9.12
2022-11-28T15:33:44.769Z,9.12
2022-11-28T15:34:44.952Z,9.16
2022-11-28T15:35:44.668Z,9.08
2022-11-28T15:36:44.613Z,9.08
2022-11-28T15:37:44.568Z,9.08
2022-11-28T15:38:44.514Z,9.03
2022-11-28T15:39:44.471Z,9.03
2022-11-28T15:40:44.411Z,9.18
2022-11-28T15:41:44.363Z,9.18
2022-11-28T15:42:44.319Z,9.09
2022-11-28T15:43:44.273Z,9.13
2022-11-28T15:44:44.515Z,9.12
2022-11-28T15:45:44.176Z,9.03
2022-11-28T15:46:44.207Z,9.13
2022-11-28T15:47:44.082Z,9.08
2022-11-28T15:48:44.050Z,9.13
2022-11-28T15:49:43.986Z,9.13
2022-11-28T15:50:43.933Z,9.16
2022-11-28T15:51:43.893Z,9.16
2022-11-28T15:52:43.839Z,9.16
2022-11-28T15:53:43.793Z,9.18
2022-11-28T15:54:44.087Z,9.19
2022-11-28T15:55:43.710Z,9.19
2022-11-28T15:56:43.673Z,9.18
2022-11-28T15:57:43.619Z,9.16
2022-11-28T15:58:43.567Z,9.13
2022-11-28T15:59:43.530Z,9.19
2022-11-28T16:00:43.495Z,9.15
2022-11-28T16:01:43.478Z,9.18
2022-11-28T16:02:43.375Z,9.19
2022-11-28T16:03:43.334Z,9.22
2022-11-28T16:04:43.660Z,9.18
2022-11-28T16:05:43.240Z,9.26
2022-11-28T16:06:43.716Z,9.22
2022-11-28T16:07:43.231Z,9.22
2022-11-28T16:08:43.111Z,9.36
2022-11-28T16:10:43.083Z,9.36
2022-11-28T16:11:42.966Z,9.36
2022-11-28T16:12:42.927Z,9.33
2022-11-28T16:13:42.888Z,9.33
2022-11-28T16:14:43.146Z,9.33
2022-11-28T16:15:47.051Z,9.37
2022-11-28T16:16:42.807Z,9.36
2022-11-28T16:17:42.685Z,9.33
2022-11-28T16:18:42.644Z,9.33
2022-11-28T16:19:42.591Z,9.33
2022-11-28T16:20:42.573Z,9.36
2022-11-28T16:21:42.501Z,9.34
2022-11-28T16:22:42.456Z,9.37
2022-11-28T16:23:42.406Z,9.37
2022-11-28T16:24:42.413Z,9.37
2022-11-28T16:25:42.329Z,9.33
2022-11-28T16:26:42.277Z,9.40
2022-11-28T16:28:42.184Z,9.47
2022-11-28T16:29:42.292Z,9.44
2022-11-28T16:31:42.077Z,9.40
2022-11-28T16:32:41.997Z,9.33
2022-11-28T16:33:41.959Z,9.48
2022-11-28T16:34:42.186Z,9.31
2022-11-28T16:35:41.859Z,9.44
2022-11-28T16:36:41.841Z,9.45
2022-11-28T16:37:41.770Z,9.45
2022-11-28T16:38:41.731Z,9.51
2022-11-28T16:39:41.726Z,9.51
2022-11-28T16:40:41.634Z,9.45
2022-11-28T16:41:41.586Z,9.51
2022-11-28T16:42:41.550Z,9.49
2022-11-28T16:43:41.500Z,9.51
2022-11-28T16:44:41.449Z,9.51
2022-11-28T16:45:41.471Z,9.49
2022-11-28T16:46:41.360Z,9.51
2022-11-28T16:47:41.338Z,9.48
2022-11-28T16:49:41.344Z,9.51
2022-11-28T16:50:41.180Z,9.52
2022-11-28T16:51:41.136Z,9.48
2022-11-28T16:52:41.103Z,9.51
2022-11-28T16:53:41.042Z,9.45
2022-11-28T16:54:41.326Z,9.48
2022-11-28T16:55:40.970Z,9.48
2022-11-28T16:56:40.904Z,9.47
2022-11-28T16:57:40.864Z,9.49
2022-11-28T16:58:41.137Z,9.48
2022-11-28T16:59:40.866Z,9.48
2022-11-28T17:00:40.825Z,9.49
2022-11-28T17:01:40.779Z,9.52
2022-11-28T17:02:40.633Z,9.49
2022-11-28T17:03:40.585Z,9.49
2022-11-28T17:04:40.558Z,9.56
2022-11-28T17:05:40.497Z,9.51
2022-11-28T17:06:40.474Z,9.52
2022-11-28T17:07:40.450Z,9.59
2022-11-28T17:08:40.383Z,9.62
2022-11-28T17:09:40.347Z,9.48
2022-11-28T17:10:40.288Z,9.52
2022-11-28T17:11:40.237Z,9.52
2022-11-28T17:12:40.173Z,9.54
2022-11-28T17:13:40.159Z,9.52
2022-11-28T17:14:40.083Z,9.63
2022-11-28T17:15:40.036Z,9.62
2022-11-28T17:16:40.057Z,9.66
2022-11-28T17:17:39.955Z,9.69
2022-11-28T17:18:39.900Z,9.58
2022-11-28T17:19:39.858Z,9.66
2022-11-28T17:20:39.829Z,9.69
2022-11-28T17:21:39.771Z,9.59
2022-11-28T17:22:41.312Z,9.64
2022-11-28T17:23:39.695Z,9.56
2022-11-28T17:24:39.664Z,9.62
2022-11-28T17:25:39.612Z,9.66
2022-11-28T17:26:39.558Z,9.56
2022-11-28T17:27:39.519Z,9.67
2022-11-28T17:28:39.450Z,9.67
2022-11-28T17:29:39.403Z,9.69
2022-11-28T17:30:39.375Z,9.69
2022-11-28T17:31:39.366Z,9.69
2022-11-28T17:32:39.262Z,9.67
2022-11-28T17:33:44.314Z,9.67
2022-11-28T17:34:39.176Z,9.67
2022-11-28T17:35:39.130Z,9.64
2022-11-28T17:36:39.099Z,9.73
2022-11-28T17:37:39.047Z,9.72
2022-11-28T17:38:39.011Z,9.66
2022-11-28T17:39:38.977Z,9.66
2022-11-28T17:40:38.943Z,9.66
2022-11-28T17:41:38.859Z,9.73
2022-11-28T17:42:38.843Z,9.66
2022-11-28T17:43:39.391Z,9.63
2022-11-28T17:44:38.751Z,9.69
2022-11-28T17:45:38.717Z,9.67
2022-11-28T17:46:38.646Z,9.72
2022-11-28T17:47:38.919Z,9.70
2022-11-28T17:48:38.551Z,9.72
2022-11-28T17:49:43.135Z,9.72
2022-11-28T17:50:38.456Z,9.70
2022-11-28T17:51:38.425Z,9.74
2022-11-28T17:52:38.370Z,9.70
2022-11-28T17:53:38.316Z,9.72
2022-11-28T17:54:38.293Z,9.72
2022-11-28T17:55:38.228Z,9.72
2022-11-28T17:56:38.193Z,9.72
2022-11-28T17:57:38.136Z,9.82
2022-11-28T17:58:38.102Z,9.73
2022-11-28T17:59:38.039Z,9.80
2022-11-28T18:00:38.055Z,9.82
2022-11-28T18:01:38.303Z,9.74
2022-11-28T18:02:38.024Z,9.76
2022-11-28T18:03:37.858Z,9.76
2022-11-28T18:04:37.813Z,9.84
2022-11-28T18:05:37.784Z,9.82
2022-11-28T18:06:38.048Z,9.81
2022-11-28T18:07:37.790Z,9.82
2022-11-28T18:08:37.646Z,9.74
2022-11-28T18:09:37.603Z,9.80
2022-11-28T18:10:37.554Z,9.82
2022-11-28T18:11:37.516Z,9.76
2022-11-28T18:12:37.477Z,9.82
2022-11-28T18:13:37.403Z,9.80
2022-11-28T18:14:39.844Z,9.84
2022-11-28T18:15:37.642Z,9.85
2022-11-28T18:16:37.325Z,9.77
2022-11-28T18:17:37.561Z,9.82
2022-11-28T18:18:37.193Z,9.85
2022-11-28T18:19:37.133Z,9.84
2022-11-28T18:20:37.085Z,9.84
2022-11-28T18:21:37.058Z,9.85
2022-11-28T18:22:36.996Z,9.85
2022-11-28T18:23:36.982Z,9.88
2022-11-28T18:24:36.930Z,9.85
2022-11-28T18:25:36.883Z,9.92
2022-11-28T18:26:36.819Z,9.85
2022-11-28T18:27:36.786Z,9.91
2022-11-28T18:28:36.744Z,9.88
2022-11-28T18:29:36.703Z,9.91
2022-11-28T18:30:36.648Z,9.92
2022-11-28T18:31:36.657Z,9.91
2022-11-28T18:32:36.540Z,9.95
2022-11-28T18:33:36.512Z,9.92
2022-11-28T18:34:36.450Z,9.90
2022-11-28T18:35:36.406Z,9.92
2022-11-28T18:36:36.359Z,9.87
2022-11-28T18:37:36.332Z,9.85
2022-11-28T18:38:36.267Z,9.92
2022-11-28T18:39:36.222Z,9.92
2022-11-28T18:40:36.200Z,9.90
2022-11-28T18:41:36.158Z,9.91
2022-11-28T18:42:36.116Z,9.91
2022-11-28T18:43:36.056Z,9.92
2022-11-28T18:45:36.317Z,9.92
2022-11-28T18:46:35.925Z,9.92
2022-11-28T18:47:35.876Z,9.95
2022-11-28T18:48:35.813Z,10.00
2022-11-28T18:49:35.792Z,9.97
2022-11-28T18:50:35.724Z,10.00
2022-11-28T18:51:35.682Z,9.92
2022-11-28T18:52:35.651Z,10.00
2022-11-28T18:53:35.601Z,9.94
2022-11-28T18:54:35.570Z,10.00
2022-11-28T18:55:35.494Z,9.92
2022-11-28T18:56:35.452Z,9.99
2022-11-28T18:57:35.423Z,9.94
2022-11-28T18:58:35.694Z,9.99
2022-11-28T18:59:35.335Z,9.99
2022-11-28T19:00:35.276Z,9.94
2022-11-28T19:01:35.296Z,10.03
2022-11-28T19:02:35.302Z,10.02
2022-11-28T19:03:35.149Z,10.03
2022-11-28T19:04:35.119Z,10.00
2022-11-28T19:05:39.085Z,9.97
2022-11-28T19:06:35.030Z,10.00
2022-11-28T19:07:35.063Z,9.92
2022-11-28T19:08:35.005Z,10.00
2022-11-28T19:09:34.861Z,9.95
2022-11-28T19:10:34.852Z,10.00
2022-11-28T19:11:34.768Z,9.95
2022-11-28T19:12:34.747Z,10.02
2022-11-28T19:13:34.701Z,10.00
2022-11-28T19:14:34.960Z,10.06
2022-11-28T19:15:34.614Z,10.02
2022-11-28T19:16:34.604Z,10.02
2022-11-28T19:17:34.521Z,10.06
2022-11-28T19:18:34.454Z,10.09
2022-11-28T19:19:34.421Z,10.02
2022-11-28T19:20:34.382Z,10.02
2022-11-28T19:21:34.331Z,10.05
2022-11-28T19:22:34.270Z,9.99
2022-11-28T19:23:34.242Z,10.05
2022-11-28T19:24:34.294Z,10.07
2022-11-28T19:26:34.105Z,10.02
2022-11-28T19:27:34.043Z,10.00
2022-11-28T19:28:34.004Z,10.07
2022-11-28T19:29:33.977Z,10.06
2022-11-28T19:30:33.930Z,10.10
2022-11-28T19:31:33.910Z,10.15
2022-11-28T19:32:33.832Z,10.10
2022-11-28T19:33:33.802Z,10.09
2022-11-28T19:34:33.764Z,10.07
2022-11-28T19:35:33.703Z,10.09
2022-11-28T19:36:33.659Z,10.09
2022-11-28T19:37:33.618Z,10.09
2022-11-28T19:38:33.545Z,10.17
2022-11-28T19:39:33.502Z,10.15
2022-11-28T19:40:33.457Z,10.15
2022-11-28T19:41:33.558Z,10.12
2022-11-28T19:42:33.363Z,10.20
2022-11-28T19:43:33.319Z,10.18
2022-11-28T19:44:33.288Z,10.15
2022-11-28T19:45:33.304Z,10.15
2022-11-28T19:46:35.642Z,10.12
2022-11-28T19:47:33.157Z,10.15
2022-11-28T19:48:33.109Z,10.12
2022-11-28T19:49:33.071Z,10.12
2022-11-28T19:50:33.005Z,10.13
2022-11-28T19:51:32.983Z,10.21
2022-11-28T19:52:32.913Z,10.17
2022-11-28T19:53:32.873Z,10.15
2022-11-28T19:54:33.192Z,10.23
2022-11-28T19:55:32.805Z,10.13
2022-11-28T19:56:32.763Z,10.12
2022-11-28T19:57:32.697Z,10.21
2022-11-28T19:58:32.659Z,10.13
2022-11-28T19:59:32.596Z,10.18
2022-11-28T20:00:32.572Z,10.17
2022-11-28T20:01:32.545Z,10.15
2022-11-28T20:02:32.848Z,10.15
2022-11-28T20:03:32.421Z,10.17
2022-11-28T20:04:32.368Z,10.21
2022-11-28T20:05:32.649Z,10.21
2022-11-28T20:06:32.283Z,10.20
2022-11-28T20:07:32.278Z,10.13
2022-11-28T20:08:32.208Z,10.20
2022-11-28T20:09:32.165Z,10.18
2022-11-28T20:10:32.106Z,10.17
2022-11-28T20:11:32.075Z,10.23
2022-11-28T20:12:32.061Z,10.28
2022-11-28T20:13:31.966Z,10.25
2022-11-28T20:14:31.936Z,10.23
2022-11-28T20:15:31.887Z,10.24
2022-11-28T20:16:31.938Z,10.25
2022-11-28T20:17:31.800Z,10.25
2022-11-28T20:18:31.757Z,10.27
2022-11-28T20:19:31.717Z,10.25
2022-11-28T20:20:31.645Z,10.25
2022-11-28T20:21:31.620Z,10.25
2022-11-28T20:22:31.575Z,10.23
2022-11-28T20:23:31.837Z,10.27
2022-11-28T20:24:31.464Z,10.25
2022-11-28T20:25:31.418Z,10.23
2022-11-28T20:26:31.491Z,10.25
2022-11-28T20:27:31.326Z,10.25
2022-11-28T20:28:31.281Z,10.28
2022-11-28T20:29:31.252Z,10.25
2022-11-28T20:30:31.192Z,10.28
2022-11-28T20:31:31.212Z,10.25
2022-11-28T20:32:31.101Z,10.24
2022-11-28T20:33:31.056Z,10.21
2022-11-28T20:34:31.034Z,10.27
2022-11-28T20:35:30.996Z,10.25
2022-11-28T20:36:30.938Z,10.30
2022-11-28T20:37:31.209Z,10.27
2022-11-28T20:38:30.850Z,10.25
2022-11-28T20:39:30.815Z,10.24
2022-11-28T20:40:30.770Z,10.25
2022-11-28T20:41:30.719Z,10.28
2022-11-28T20:42:33.317Z,10.31
2022-11-28T20:43:30.605Z,10.34
2022-11-28T20:44:30.566Z,10.31
2022-11-28T20:45:30.551Z,10.28
2022-11-28T20:46:30.488Z,10.28
2022-11-28T20:47:30.426Z,10.28
2022-11-28T20:48:30.410Z,10.33
2022-11-28T20:49:30.357Z,10.34
2022-11-28T20:50:30.306Z,10.34
2022-11-28T20:51:30.241Z,10.34
2022-11-28T20:52:30.217Z,10.27
2022-11-28T20:53:30.175Z,10.31
2022-11-28T20:54:30.109Z,10.21
2022-11-28T20:55:30.079Z,10.34
2022-11-28T20:56:30.038Z,10.34
2022-11-28T20:57:29.992Z,10.24
2022-11-28T20:58:29.960Z,10.20
2022-11-28T20:59:29.910Z,10.36
2022-11-28T21:00:29.855Z,10.38
2022-11-28T21:01:29.876Z,10.30
2022-11-28T21:02:29.866Z,10.36
2022-11-28T21:03:29.797Z,10.38
2022-11-28T21:04:29.676Z,10.33
2022-11-28T21:05:29.633Z,10.28
2022-11-28T21:06:29.568Z,10.34
2022-11-28T21:07:29.595Z,10.41
2022-11-28T21:08:29.478Z,10.34
2022-11-28T21:09:29.446Z,10.30
2022-11-28T21:10:29.384Z,10.34
2022-11-28T21:11:55.671Z,10.34
2022-11-28T21:12:29.310Z,10.41
2022-11-28T21:13:29.254Z,10.41
2022-11-28T21:14:29.467Z,10.33
2022-11-28T21:15:29.482Z,10.39
2022-11-28T21:17:29.095Z,10.41
2022-11-28T21:18:29.019Z,10.42
2022-11-28T21:19:28.996Z,10.41
2022-11-28T21:20:28.951Z,10.41
2022-11-28T21:21:28.887Z,10.45
2022-11-28T21:22:28.863Z,10.36
2022-11-28T21:23:28.815Z,10.34
2022-11-28T21:24:28.747Z,10.42
2022-11-28T21:25:28.727Z,10.34
2022-11-28T21:26:30.431Z,10.36
2022-11-28T21:27:28.613Z,10.34
2022-11-28T21:28:28.569Z,10.34
2022-11-28T21:29:28.542Z,10.41
2022-11-28T21:30:28.501Z,10.38
2022-11-28T21:31:28.457Z,10.39
2022-11-28T21:32:28.413Z,10.39
2022-11-28T21:33:28.351Z,10.38
2022-11-28T21:34:28.620Z,10.42
2022-11-28T21:35:28.256Z,10.39
2022-11-28T21:36:28.222Z,10.41
2022-11-28T21:37:28.180Z,10.36
2022-11-28T21:38:28.135Z,10.42
2022-11-28T21:39:28.091Z,10.41
2022-11-28T21:41:27.997Z,10.39
2022-11-28T21:42:27.967Z,10.41
2022-11-28T21:43:27.887Z,10.34
2022-11-28T21:44:27.867Z,10.39
2022-11-28T21:45:27.875Z,10.34
2022-11-28T21:46:27.754Z,10.31
2022-11-28T21:47:27.738Z,10.34
2022-11-28T21:48:27.991Z,10.38
2022-11-28T21:49:27.651Z,10.43
2022-11-28T21:50:27.600Z,10.38
2022-11-28T21:51:27.526Z,10.39
2022-11-28T21:52:27.495Z,10.42
2022-11-28T21:53:27.435Z,10.33
2022-11-28T21:54:27.396Z,10.43
2022-11-28T21:55:27.343Z,10.42
2022-11-28T21:56:27.324Z,10.36
2022-11-28T21:57:27.277Z,10.45
2022-11-28T21:58:27.237Z,10.39
2022-11-28T21:59:27.166Z,10.34
2022-11-28T22:00:52.259Z,10.36
2022-11-28T22:01:27.142Z,10.43
2022-11-28T22:02:30.800Z,10.39
2022-11-28T22:03:27.086Z,10.43
2022-11-28T22:04:26.958Z,10.39
2022-11-28T22:05:26.924Z,10.39
2022-11-28T22:06:26.854Z,10.38
2022-11-28T22:07:26.831Z,10.36
2022-11-28T22:08:26.758Z,10.41
2022-11-28T22:09:26.722Z,10.48
2022-11-28T22:10:26.694Z,10.46
2022-11-28T22:11:26.625Z,10.38
2022-11-28T22:12:26.582Z,10.48
2022-11-28T22:13:26.557Z,10.36
2022-11-28T22:14:26.820Z,10.51
2022-11-28T22:15:26.441Z,10.46
2022-11-28T22:16:26.497Z,10.48
2022-11-28T22:17:26.376Z,10.45
2022-11-28T22:18:26.633Z,10.46
2022-11-28T22:19:26.287Z,10.49
2022-11-28T22:20:26.218Z,10.48
2022-11-28T22:21:51.157Z,10.46
2022-11-28T22:22:26.149Z,10.48
2022-11-28T22:23:26.349Z,10.48
2022-11-28T22:24:26.059Z,10.53
2022-11-28T22:25:26.429Z,10.48
2022-11-28T22:26:26.004Z,10.46
2022-11-28T22:27:26.481Z,10.53
2022-11-28T22:28:25.855Z,10.46
2022-11-28T22:29:25.875Z,10.43
2022-11-28T22:30:25.788Z,10.43
2022-11-28T22:31:26.120Z,10.48
2022-11-28T22:32:25.686Z,10.46
2022-11-28T22:33:25.679Z,10.46
2022-11-28T22:34:25.595Z,10.48
2022-11-28T22:35:25.540Z,10.53
2022-11-28T22:36:25.499Z,10.53
2022-11-28T22:37:25.454Z,10.48
2022-11-28T22:38:25.409Z,10.51
2022-11-28T22:39:25.379Z,10.49
2022-11-28T22:40:25.311Z,10.57
2022-11-28T22:41:28.924Z,10.51
2022-11-28T22:42:25.237Z,10.49
2022-11-28T22:44:25.132Z,10.48
2022-11-28T22:45:25.120Z,10.57
2022-11-28T22:46:25.041Z,10.53
2022-11-28T22:47:25.000Z,10.49
2022-11-28T22:48:24.956Z,10.51
2022-11-28T22:49:25.197Z,10.57
2022-11-28T22:50:24.871Z,10.61
2022-11-28T22:51:25.462Z,10.55
2022-11-28T22:53:25.478Z,10.51
2022-11-28T22:54:24.688Z,10.57
2022-11-28T22:55:25.048Z,10.51
2022-11-28T22:56:24.598Z,10.55
2022-11-28T22:57:24.590Z,10.46
2022-11-28T22:58:24.509Z,10.53
2022-11-28T22:59:24.629Z,10.51
2022-11-28T23:00:24.417Z,10.62
2022-11-28T23:01:24.455Z,10.53
2022-11-28T23:02:25.037Z,10.57
2022-11-28T23:03:24.462Z,10.51
2022-11-28T23:04:24.229Z,10.67
2022-11-28T23:05:24.187Z,10.59
2022-11-28T23:06:24.142Z,10.51
2022-11-28T23:07:24.146Z,10.59
2022-11-28T23:08:24.084Z,10.55
2022-11-28T23:09:24.005Z,10.61
2022-11-28T23:10:23.966Z,10.57
2022-11-28T23:11:23.919Z,10.58
2022-11-28T23:12:23.883Z,10.55
2022-11-28T23:13:23.831Z,10.57
2022-11-28T23:14:23.785Z,10.53
2022-11-28T23:15:23.730Z,10.48
2022-11-28T23:17:23.693Z,10.46
2022-11-28T23:18:23.617Z,10.61
2022-11-28T23:19:23.557Z,10.64
2022-11-28T23:20:23.503Z,10.59
2022-11-28T23:21:23.458Z,10.57
2022-11-28T23:22:23.412Z,10.48
2022-11-28T23:23:23.367Z,10.65
2022-11-28T23:24:23.321Z,10.59
2022-11-28T23:25:23.275Z,10.53
2022-11-28T23:26:23.229Z,10.49
2022-11-28T23:27:23.183Z,10.64
2022-11-28T23:28:23.137Z,10.49
2022-11-28T23:29:23.090Z,10.62
2022-11-28T23:30:23.044Z,10.53
2022-11-28T23:31:23.065Z,10.57
2022-11-28T23:32:22.949Z,10.49
2022-11-28T23:33:22.926Z,10.58
2022-11-28T23:34:22.859Z,10.55
2022-11-28T23:35:22.809Z,10.55
2022-11-28T23:36:22.761Z,10.49
